»·PEaware :: N8408E KSMX-KBFL

N8408E :: KSMX-KBFL

FLIGHT INFORMATION

Flight Status: Arrived
Operator: Privately registered:
United States
More flights under this callsign
Pilot: John H. (22960)
Aircraft: CESSNA 172 SKYHAWK
(C172)
More flights by this aircraft type
Origin: KSMX Santa Maria Pub/Capt Hancock
United States
Destination: KBFL Meadows
United States
More flights between these airports :: More routes between these airports
Route: DIRECT
File this flight plan on PilotEdge
Remarks:
Altitude:
(Current/Filed)
7,500ft
Speed:
(Current/Filed)
115kts
Departed: 02-Feb-19 03:45 PM
Arrived: 02-Feb-19 04:32 PM
Distance/Time
Traveled:
76nm/0:46
Distance/Time
To Go:
Arrived

Flight Plot

Page will automatically refresh every two minutes.


Map Options




Map Legend


Flown Route
Filed Route
Departure Airport
Arrival Airport
Navaid (VOR, NDB)
Fix

Horizontal Profiles

Position Reports

Time Latitude Longitude Heading Altitude Ground
Speed
02-Feb-19 15:34 34.895845 -120.445232 314 265ft 0kts
02-Feb-19 15:35 34.895846 -120.445231 313 265ft 0kts
02-Feb-19 15:36 34.895846 -120.445231 313 265ft 0kts
02-Feb-19 15:37 34.895845 -120.445231 314 265ft 0kts
02-Feb-19 15:38 34.895587 -120.445347 154 265ft 7kts
02-Feb-19 15:39 34.895230 -120.445049 135 265ft 1kts
02-Feb-19 15:40 34.895205 -120.444961 132 265ft 0kts
02-Feb-19 15:41 34.894899 -120.445034 224 265ft 12kts
02-Feb-19 15:42 34.893909 -120.445640 181 265ft 0kts
02-Feb-19 15:43 34.893894 -120.445641 181 265ft 2kts
02-Feb-19 15:44 34.901660 -120.454844 351 616ft 75kts
02-Feb-19 15:45 34.912467 -120.436136 62 1532ft 73kts
02-Feb-19 15:46 34.921080 -120.414277 64 2414ft 73kts
02-Feb-19 15:47 34.929783 -120.391795 64 3186ft 73kts
02-Feb-19 15:48 34.938790 -120.369200 65 3933ft 75kts
02-Feb-19 15:49 34.947728 -120.346251 63 4677ft 74kts
02-Feb-19 15:50 34.954915 -120.322009 68 5380ft 77kts
02-Feb-19 15:51 34.962229 -120.297754 64 6085ft 75kts
02-Feb-19 15:52 34.971524 -120.274190 65 6741ft 77kts
02-Feb-19 15:53 34.980635 -120.250281 63 7374ft 78kts
02-Feb-19 15:54 34.990564 -120.223906 64 7729ft 104kts
02-Feb-19 15:55 35.003840 -120.189957 61 7816ft 111kts
02-Feb-19 15:56 35.017531 -120.154932 64 7762ft 114kts
02-Feb-19 15:57 35.030677 -120.119400 67 7693ft 115kts
02-Feb-19 15:59 35.043942 -120.084152 62 7680ft 110kts
02-Feb-19 16:00 35.058285 -120.050662 64 7733ft 111kts
02-Feb-19 16:01 35.071313 -120.015988 64 7779ft 113kts
02-Feb-19 16:02 35.084603 -119.981187 63 7762ft 113kts
02-Feb-19 16:03 35.097750 -119.946474 64 7724ft 112kts
02-Feb-19 16:04 35.110449 -119.911415 64 7687ft 112kts
02-Feb-19 16:05 35.123769 -119.876809 63 7683ft 111kts
02-Feb-19 16:06 35.137066 -119.842233 65 7710ft 112kts
02-Feb-19 16:07 35.150018 -119.807417 63 7743ft 112kts
02-Feb-19 16:08 35.163503 -119.772821 64 7771ft 112kts
02-Feb-19 16:09 35.176750 -119.738348 64 7808ft 112kts
02-Feb-19 16:10 35.189906 -119.703479 65 7834ft 112kts
02-Feb-19 16:11 35.203582 -119.668734 64 7783ft 113kts
02-Feb-19 16:12 35.216925 -119.634026 64 7777ft 113kts
02-Feb-19 16:13 35.229693 -119.598886 64 7741ft 112kts
02-Feb-19 16:14 35.242877 -119.564171 66 7518ft 114kts
02-Feb-19 16:15 35.255838 -119.529318 65 6939ft 113kts
02-Feb-19 16:15 35.266577 -119.500350 64 6465ft 110kts
02-Feb-19 16:16 35.279220 -119.465982 64 5898ft 110kts
02-Feb-19 16:18 35.294286 -119.426416 64 5270ft 109kts
02-Feb-19 16:19 35.306902 -119.392731 63 4741ft 108kts
02-Feb-19 16:19 35.317933 -119.364215 65 4678ft 110kts
02-Feb-19 16:20 35.331049 -119.329871 64 4776ft 111kts
02-Feb-19 16:21 35.344293 -119.295388 65 4859ft 110kts
02-Feb-19 16:23 35.358952 -119.254669 65 4730ft 112kts
02-Feb-19 16:23 35.369886 -119.225907 64 4714ft 111kts
02-Feb-19 16:24 35.382612 -119.191243 64 4659ft 109kts
02-Feb-19 16:25 35.395399 -119.156372 66 4033ft 112kts
02-Feb-19 16:26 35.407750 -119.121760 66 3182ft 110kts
02-Feb-19 16:27 35.419099 -119.087065 75 2142ft 109kts
02-Feb-19 16:28 35.415806 -119.055312 124 1554ft 100kts
02-Feb-19 16:29 35.410679 -119.031368 40 953ft 80kts
02-Feb-19 16:30 35.426404 -119.047523 315 655ft 89kts
02-Feb-19 16:31 35.438162 -119.060020 53 495ft 0kts
02-Feb-19 16:32 35.437740 -119.058695 134 496ft 17kts
02-Feb-19 16:33 35.432821 -119.051899 38 496ft 14kts
02-Feb-19 16:34 35.433571 -119.051018 46 501ft 0kts

Navigation Log

Ident Type
Flight plan parsing failed, navigation log unavailable